Paro, Bhutan
Current Conditions -  °F | °C
As of 3:50 PM on Friday 24 Oct 2014 (Local Time) from VNKT Reporting Station
Scattered Clouds Scattered Clouds  
Wind Chill: 23°   Ceiling: Unl
Heat Index: 23°   Visibility: 6mi
Dew Point: 14°   Wind: 8mph
Humidity: 57%   Direction: 280°W
Pressure: 30.03"   Gusts: NA
Location:  27.51°N, 89.36°E
Report Text: VNKT 240950Z 28007KT 9999 FEW025 SCT030 23/14 Q1017 NOSIG
Loading
Personal Weather Stations






























Interactive Weather Map
Tropical Storm Tracking
New forecast layout! Learn more

10-Day Weather Forecast

Advertisements
Track Severe Weather on mobile